Time;durP1;ratioP1;P1;durP2;ratioP2;P2;SDS_P1;SDS_P2;PMS_P1;PMS_P2;Temp;Humidity;BMP_temperature;BMP_pressure;BME280_temperature;BME280_humidity;BME280_pressure;Samples;Min_cycle;Max_cycle;Signal;HPM_P1;HPM_P2
2022/10/25 00:01:27;;;;;;;8.85;2.55;;;18.90;73.70;;;;;;6116090;29;20080;-75
2022/10/25 00:04:28;;;;;;;2.58;1.55;;;18.80;73.80;;;;;;6101421;29;20031;-75
2022/10/25 00:07:29;;;;;;;4.68;1.23;;;18.80;73.80;;;;;;6089212;29;20458;-75
2022/10/25 00:10:30;;;;;;;1.55;1.10;;;18.80;73.60;;;;;;6073498;29;20442;-76
2022/10/25 00:13:31;;;;;;;5.60;0.90;;;18.70;73.50;;;;;;6115661;29;20545;-77
2022/10/25 00:16:36;;;;;;;3.03;1.33;;;18.70;73.60;;;;;;6108548;29;20033;-75
2022/10/25 00:19:37;;;;;;;3.55;1.13;;;18.60;73.60;;;;;;6112499;29;20055;-77
2022/10/25 00:22:38;;;;;;;4.32;1.52;;;18.60;73.70;;;;;;6113203;29;20344;-77
2022/10/25 00:25:39;;;;;;;3.42;1.48;;;18.60;74.00;;;;;;6101075;29;20099;-77
2022/10/25 00:28:40;;;;;;;5.70;1.35;;;18.60;74.10;;;;;;6110135;29;20045;-77
2022/10/25 00:31:41;;;;;;;14.75;2.13;;;18.50;74.20;;;;;;6115895;29;20549;-77
2022/10/25 00:34:42;;;;;;;2.25;1.58;;;18.50;74.30;;;;;;6095376;29;20044;-77
2022/10/25 00:37:43;;;;;;;4.85;1.73;;;18.50;74.30;;;;;;6115559;29;20129;-76
2022/10/25 00:40:43;;;;;;;4.80;1.70;;;18.50;74.50;;;;;;6100703;29;20365;-76
2022/10/25 00:43:48;;;;;;;8.45;1.85;;;18.50;74.50;;;;;;6099335;29;20036;-76
2022/10/25 00:46:49;;;;;;;3.75;1.45;;;18.40;74.60;;;;;;6098902;29;20035;-77
2022/10/25 00:50:04;;;;;;;5.03;2.22;;;18.50;74.60;;;;;;6099310;29;20043;-76
2022/10/25 00:53:09;;;;;;;6.68;1.92;;;18.50;74.60;;;;;;6115145;29;20148;-77
2022/10/25 00:56:18;;;;;;;6.03;1.85;;;18.50;74.50;;;;;;6105706;29;20055;-76
2022/10/25 00:59:24;;;;;;;7.40;1.63;;;18.50;74.40;;;;;;6099478;29;20058;-76
2022/10/25 01:02:25;;;;;;;2.78;1.90;;;18.50;74.40;;;;;;6100106;29;20095;-77
2022/10/25 01:05:26;;;;;;;5.43;1.42;;;18.50;74.30;;;;;;6110559;29;20036;-77
2022/10/25 01:08:27;;;;;;;4.28;1.80;;;18.50;74.50;;;;;;6092884;29;20034;-76
2022/10/25 01:11:29;;;;;;;5.10;1.85;;;18.40;74.40;;;;;;6111064;29;20050;-77
2022/10/25 01:14:33;;;;;;;5.70;1.63;;;18.40;74.40;;;;;;6098053;29;20107;-77
2022/10/25 01:17:33;;;;;;;3.80;1.83;;;18.40;74.40;;;;;;6092953;29;20623;-77
2022/10/25 01:21:02;;;;;;;4.70;2.08;;;18.40;74.40;;;;;;6096030;29;20091;-76
2022/10/25 01:24:08;;;;;;;3.47;1.83;;;18.30;74.50;;;;;;6102691;29;20028;-76
2022/10/25 01:27:45;;;;;;;6.70;2.22;;;18.30;74.60;;;;;;6112919;29;20043;-76
2022/10/25 01:30:46;;;;;;;4.00;2.40;;;18.30;74.80;;;;;;6095850;29;20033;-77
2022/10/25 01:34:11;;;;;;;4.03;2.00;;;18.30;74.70;;;;;;6089152;29;20144;-77
2022/10/25 01:37:30;;;;;;;4.75;2.08;;;18.20;74.80;;;;;;6095054;29;20028;-77
2022/10/25 01:40:58;;;;;;;4.88;2.58;;;18.20;74.90;;;;;;6097016;29;20056;-77
2022/10/25 01:44:02;;;;;;;4.13;2.13;;;18.30;74.90;;;;;;6090438;29;20039;-76
2022/10/25 01:47:12;;;;;;;5.65;2.75;;;18.30;74.80;;;;;;6097105;29;20414;-77
2022/10/25 01:50:21;;;;;;;3.97;1.88;;;18.30;74.80;;;;;;6100902;29;20066;-77
2022/10/25 01:53:22;;;;;;;8.15;1.95;;;18.30;74.60;;;;;;6097994;29;20579;-77
2022/10/25 01:56:27;;;;;;;5.88;2.22;;;18.20;74.50;;;;;;6101443;29;20083;-77
2022/10/25 01:59:28;;;;;;;3.83;1.85;;;18.20;74.60;;;;;;6100540;29;20099;-77
2022/10/25 02:03:13;;;;;;;6.93;1.95;;;18.20;74.60;;;;;;6100109;29;20032;-77
2022/10/25 02:06:43;;;;;;;6.57;2.00;;;18.20;74.70;;;;;;6033818;29;20029;-77
2022/10/25 02:10:02;;;;;;;3.45;1.73;;;18.20;74.70;;;;;;6045146;29;20045;-77
2022/10/25 02:13:20;;;;;;;3.95;1.42;;;18.20;74.70;;;;;;6036037;29;20068;-77
2022/10/25 02:16:26;;;;;;;2.28;1.30;;;18.20;74.70;;;;;;6042788;29;20033;-76
2022/10/25 02:19:32;;;;;;;4.20;1.90;;;18.30;74.60;;;;;;6041852;29;20045;-76
2022/10/25 02:22:36;;;;;;;8.38;1.88;;;18.30;74.50;;;;;;6037003;29;20056;-77
2022/10/25 02:25:40;;;;;;;3.47;2.00;;;18.30;74.40;;;;;;6042727;29;20037;-76
2022/10/25 02:28:43;;;;;;;5.30;2.05;;;18.30;74.40;;;;;;6055601;29;20101;-76
2022/10/25 02:31:44;;;;;;;10.57;2.25;;;18.30;74.30;;;;;;6030561;29;20077;-75
2022/10/25 02:34:49;;;;;;;4.07;2.00;;;18.30;74.30;;;;;;6031001;29;20088;-76
2022/10/25 02:37:50;;;;;;;3.33;1.73;;;18.30;74.40;;;;;;6048240;29;20052;-76
2022/10/25 02:40:51;;;;;;;3.42;1.73;;;18.30;74.40;;;;;;6093325;29;20454;-76
2022/10/25 02:43:51;;;;;;;3.08;1.73;;;18.30;74.20;;;;;;6097894;29;20047;-76
2022/10/25 02:46:52;;;;;;;3.17;1.60;;;18.40;74.30;;;;;;6102016;29;20419;-76
2022/10/25 02:49:53;;;;;;;2.28;1.58;;;18.40;74.20;;;;;;6106493;29;20111;-76
2022/10/25 02:52:54;;;;;;;2.20;1.48;;;18.40;74.00;;;;;;6103005;29;20115;-76
2022/10/25 02:56:15;;;;;;;1.58;1.27;;;18.40;73.80;;;;;;6102916;29;20070;-77
2022/10/25 02:59:18;;;;;;;6.25;1.70;;;18.40;73.90;;;;;;6101801;29;20127;-77
2022/10/25 03:02:19;;;;;;;3.80;1.50;;;18.40;73.70;;;;;;6102105;29;20032;-77
2022/10/25 03:05:20;;;;;;;2.00;1.20;;;18.40;73.70;;;;;;6099924;29;22694;-77
2022/10/25 03:08:21;;;;;;;2.35;1.25;;;18.40;73.60;;;;;;6072671;29;20033;-77
2022/10/25 03:11:22;;;;;;;3.60;1.73;;;18.40;73.40;;;;;;6106375;29;20446;-77
2022/10/25 03:14:24;;;;;;;2.70;1.33;;;18.40;73.40;;;;;;6105720;29;20043;-77
2022/10/25 03:17:25;;;;;;;4.10;1.88;;;18.40;73.40;;;;;;6094876;29;20044;-77
2022/10/25 03:20:25;;;;;;;5.80;1.88;;;18.30;73.30;;;;;;6105325;29;20099;-78
2022/10/25 03:23:27;;;;;;;7.68;1.98;;;18.30;73.40;;;;;;6105280;29;20033;-77
2022/10/25 03:26:28;;;;;;;4.85;2.47;;;18.30;73.50;;;;;;6102158;29;20043;-77
2022/10/25 03:29:29;;;;;;;4.20;2.10;;;18.30;73.40;;;;;;6115854;29;20446;-77
2022/10/25 03:32:29;;;;;;;5.40;2.53;;;18.20;73.30;;;;;;6105948;29;20047;-77
2022/10/25 03:35:30;;;;;;;13.30;2.97;;;18.20;73.40;;;;;;6103481;29;20036;-78
2022/10/25 03:38:31;;;;;;;9.20;2.97;;;18.20;73.50;;;;;;6101451;29;20047;-77
2022/10/25 03:41:32;;;;;;;4.90;3.15;;;18.20;73.50;;;;;;6095017;29;20067;-78
2022/10/25 03:44:33;;;;;;;5.10;2.70;;;18.10;73.50;;;;;;6101452;29;20036;-77
2022/10/25 03:47:34;;;;;;;6.15;2.78;;;18.10;73.50;;;;;;6094501;29;20036;-77
2022/10/25 03:50:35;;;;;;;6.07;2.88;;;18.00;73.50;;;;;;6102594;29;20461;-77
2022/10/25 03:53:36;;;;;;;3.95;2.88;;;18.00;73.60;;;;;;6101842;29;20035;-77
2022/10/25 03:56:36;;;;;;;3.95;2.55;;;18.00;73.70;;;;;;6117001;29;20030;-77
2022/10/25 03:59:37;;;;;;;7.70;2.80;;;17.90;73.60;;;;;;6110081;29;20140;-78
2022/10/25 04:02:38;;;;;;;4.30;2.55;;;17.90;73.80;;;;;;6099387;29;20048;-77
2022/10/25 04:05:39;;;;;;;13.35;3.33;;;17.90;73.80;;;;;;6101235;29;20039;-77
2022/10/25 04:08:40;;;;;;;11.65;2.50;;;17.80;73.90;;;;;;6102012;29;20032;-78
2022/10/25 04:11:40;;;;;;;8.45;2.30;;;17.80;73.90;;;;;;6086516;29;20055;-78
2022/10/25 04:14:42;;;;;;;5.30;2.63;;;17.80;74.00;;;;;;6101957;29;20032;-78
2022/10/25 04:17:43;;;;;;;8.02;3.10;;;17.80;74.00;;;;;;6101124;29;20080;-78
2022/10/25 04:20:44;;;;;;;9.60;4.13;;;17.80;74.10;;;;;;6117979;29;20036;-78
2022/10/25 04:23:45;;;;;;;5.55;3.53;;;17.80;74.20;;;;;;6102444;29;20039;-78
2022/10/25 04:26:46;;;;;;;11.05;4.00;;;17.80;74.00;;;;;;6103105;29;20048;-77
2022/10/25 04:29:47;;;;;;;8.18;3.33;;;17.80;73.90;;;;;;6102939;29;20051;-78
2022/10/25 04:32:48;;;;;;;10.60;4.25;;;17.70;73.70;;;;;;6103981;29;20394;-78
2022/10/25 04:35:55;;;;;;;11.02;4.45;;;17.70;73.80;;;;;;6101820;29;20464;-78
2022/10/25 04:38:55;;;;;;;8.77;4.55;;;17.70;73.80;;;;;;6101234;29;20036;-77
2022/10/25 04:41:56;;;;;;;11.60;4.35;;;17.60;73.80;;;;;;6099359;29;20103;-78
2022/10/25 04:44:57;;;;;;;7.75;4.05;;;17.60;73.80;;;;;;6084827;29;20468;-78
2022/10/25 04:47:58;;;;;;;6.85;3.80;;;17.50;73.60;;;;;;6114305;29;20111;-78
2022/10/25 04:50:59;;;;;;;9.63;4.97;;;17.40;73.70;;;;;;6090616;29;20044;-78
2022/10/25 04:54:00;;;;;;;8.07;4.13;;;17.40;73.90;;;;;;6100144;29;20095;-78
2022/10/25 04:57:01;;;;;;;6.90;3.10;;;17.30;74.10;;;;;;6110574;29;20099;-78
2022/10/25 05:00:03;;;;;;;4.88;3.08;;;17.30;74.20;;;;;;6100563;29;20052;-78
2022/10/25 05:03:04;;;;;;;4.05;2.75;;;17.40;74.20;;;;;;6097651;29;20032;-78
2022/10/25 05:06:08;;;;;;;5.72;3.17;;;17.30;74.10;;;;;;6102874;29;20423;-78
2022/10/25 05:09:09;;;;;;;7.53;3.55;;;17.40;74.20;;;;;;6100733;29;20032;-78
2022/10/25 05:12:09;;;;;;;5.40;3.08;;;17.40;74.00;;;;;;6116340;29;20063;-78
2022/10/25 05:15:10;;;;;;;6.25;3.70;;;17.30;73.80;;;;;;6113981;29;20119;-78
2022/10/25 05:18:11;;;;;;;15.05;3.17;;;17.30;73.90;;;;;;6099855;29;20103;-78
2022/10/25 05:21:13;;;;;;;13.38;3.25;;;17.20;73.90;;;;;;6100394;29;20040;-78
2022/10/25 05:24:14;;;;;;;8.57;3.60;;;17.20;74.00;;;;;;6100011;29;20058;-78
2022/10/25 05:27:14;;;;;;;5.65;3.15;;;17.10;73.80;;;;;;6103274;29;20036;-78
2022/10/25 05:30:15;;;;;;;10.43;3.50;;;17.10;74.00;;;;;;6098819;29;20040;-78
2022/10/25 05:33:16;;;;;;;5.32;3.53;;;17.10;74.10;;;;;;6097714;29;20116;-77
2022/10/25 05:36:18;;;;;;;9.10;3.22;;;17.10;74.20;;;;;;6118272;29;20406;-77
2022/10/25 05:39:19;;;;;;;5.68;3.20;;;17.10;74.10;;;;;;6103653;29;20044;-77
2022/10/25 05:42:20;;;;;;;12.52;2.97;;;17.00;74.10;;;;;;6086649;29;20051;-78
2022/10/25 05:45:21;;;;;;;11.70;3.22;;;17.00;74.20;;;;;;6099799;29;20052;-78
2022/10/25 05:48:22;;;;;;;5.78;3.08;;;16.90;74.10;;;;;;6097999;29;20044;-78
2022/10/25 05:51:28;;;;;;;13.30;3.95;;;16.80;74.10;;;;;;6113717;29;20032;-77
2022/10/25 05:54:29;;;;;;;9.95;3.50;;;16.70;74.30;;;;;;6100817;29;20040;-78
2022/10/25 05:57:30;;;;;;;16.65;3.50;;;16.70;74.60;;;;;;6101647;29;20044;-77
2022/10/25 06:00:31;;;;;;;17.38;4.05;;;16.70;74.80;;;;;;6100406;29;20047;-78
2022/10/25 06:03:32;;;;;;;7.28;3.83;;;16.60;75.00;;;;;;6099377;29;20075;-77
2022/10/25 06:06:33;;;;;;;6.50;3.13;;;16.60;75.20;;;;;;6100252;29;20043;-78
2022/10/25 06:09:36;;;;;;;7.80;3.40;;;16.60;75.20;;;;;;6094369;29;20512;-78
2022/10/25 06:12:37;;;;;;;8.10;3.60;;;16.60;75.20;;;;;;6098673;29;20374;-79
2022/10/25 06:15:37;;;;;;;3.78;2.60;;;16.60;75.30;;;;;;6095690;29;20056;-78
2022/10/25 06:18:38;;;;;;;10.20;2.47;;;16.60;75.30;;;;;;6076124;29;20476;-78
2022/10/25 06:21:39;;;;;;;4.75;2.92;;;16.60;75.40;;;;;;6098457;29;20067;-78
2022/10/25 06:24:40;;;;;;;5.28;2.55;;;16.70;75.20;;;;;;6098940;29;20051;-78
2022/10/25 06:27:41;;;;;;;4.95;3.00;;;16.70;74.90;;;;;;6089798;29;20033;-78
2022/10/25 06:30:42;;;;;;;6.53;3.10;;;16.70;75.00;;;;;;6101347;29;20028;-78
2022/10/25 06:33:44;;;;;;;8.00;2.60;;;16.70;74.80;;;;;;6075275;29;20040;-78
2022/10/25 06:36:45;;;;;;;5.55;2.90;;;16.70;74.50;;;;;;6072307;29;20040;-78
2022/10/25 06:39:48;;;;;;;4.38;2.22;;;16.60;74.50;;;;;;6105623;29;20470;-78
2022/10/25 06:42:55;;;;;;;5.75;2.75;;;16.60;74.60;;;;;;6087040;29;20103;-77
2022/10/25 06:45:56;;;;;;;4.28;3.03;;;16.50;74.60;;;;;;6098414;29;20051;-76
2022/10/25 06:48:59;;;;;;;5.53;2.65;;;16.50;74.70;;;;;;6099627;29;20504;-77
2022/10/25 06:52:00;;;;;;;5.18;2.83;;;16.50;74.90;;;;;;6098742;29;20343;-78
2022/10/25 06:55:01;;;;;;;8.93;3.53;;;16.50;75.00;;;;;;6092316;29;20088;-77
2022/10/25 06:58:02;;;;;;;7.55;4.18;;;16.50;75.00;;;;;;6110573;29;20095;-78
2022/10/25 07:01:05;;;;;;;7.43;3.47;;;16.50;75.00;;;;;;6100435;29;20125;-79
2022/10/25 07:04:06;;;;;;;5.57;3.10;;;16.60;74.90;;;;;;6101747;29;20032;-79
2022/10/25 07:07:07;;;;;;;7.90;3.03;;;16.60;74.80;;;;;;6105098;29;20062;-78
2022/10/25 07:10:08;;;;;;;9.07;3.40;;;16.70;74.90;;;;;;6106744;29;20036;-79
2022/10/25 07:13:08;;;;;;;10.27;3.10;;;16.60;74.70;;;;;;6107766;29;20067;-78
2022/10/25 07:16:12;;;;;;;8.73;3.25;;;16.70;74.50;;;;;;6095636;29;20481;-79
2022/10/25 07:19:13;;;;;;;3.80;2.50;;;16.70;74.50;;;;;;6088340;29;20492;-78
2022/10/25 07:22:14;;;;;;;4.35;2.72;;;16.70;74.40;;;;;;6099193;29;20031;-79
2022/10/25 07:25:15;;;;;;;9.70;3.30;;;16.70;74.50;;;;;;6110553;29;20040;-78
2022/10/25 07:28:15;;;;;;;4.40;2.65;;;16.70;74.50;;;;;;6100273;29;20480;-79
2022/10/25 07:31:20;;;;;;;9.13;3.30;;;16.70;74.20;;;;;;6083990;29;20036;-78
2022/10/25 07:34:20;;;;;;;5.85;2.95;;;16.70;74.10;;;;;;6097628;29;20509;-78
2022/10/25 07:37:21;;;;;;;9.90;2.58;;;16.70;73.90;;;;;;6099050;29;20036;-78
2022/10/25 07:40:22;;;;;;;5.75;2.78;;;16.70;73.90;;;;;;6112722;29;20067;-78
2022/10/25 07:43:25;;;;;;;8.20;3.58;;;16.90;74.10;;;;;;6104762;29;20452;-80
2022/10/25 07:46:26;;;;;;;6.72;2.80;;;16.70;74.20;;;;;;6105280;29;20044;-77
2022/10/25 07:49:27;;;;;;;8.98;4.32;;;16.70;74.00;;;;;;6093862;29;20084;-78
2022/10/25 07:52:28;;;;;;;26.10;3.92;;;16.70;73.90;;;;;;6104284;29;20339;-78
2022/10/25 07:55:28;;;;;;;7.00;3.83;;;16.70;74.00;;;;;;6098247;29;20117;-77
2022/10/25 07:58:30;;;;;;;7.30;3.40;;;16.70;74.10;;;;;;6089725;29;20035;-78
2022/10/25 08:01:30;;;;;;;7.15;3.58;;;16.70;74.10;;;;;;6081658;29;20028;-79
2022/10/25 08:04:31;;;;;;;15.32;4.10;;;16.80;74.20;;;;;;6104733;29;20084;-78
2022/10/25 08:07:32;;;;;;;8.70;3.95;;;16.80;74.30;;;;;;6098102;29;20047;-79
2022/10/25 08:10:33;;;;;;;7.45;3.40;;;16.90;74.30;;;;;;6102272;29;20111;-79
2022/10/25 08:13:36;;;;;;;7.18;3.58;;;17.10;74.10;;;;;;6109475;29;20068;-78
2022/10/25 08:16:37;;;;;;;15.52;3.22;;;17.10;73.90;;;;;;6105500;29;20036;-78
2022/10/25 08:19:38;;;;;;;9.23;4.45;;;17.20;73.70;;;;;;6101163;29;20067;-78
2022/10/25 08:22:39;;;;;;;10.38;5.50;;;17.20;73.60;;;;;;6101619;29;20063;-78
2022/10/25 08:25:40;;;;;;;6.82;4.50;;;17.20;73.40;;;;;;6099058;29;20059;-78
2022/10/25 08:28:40;;;;;;;6.47;4.05;;;17.30;73.20;;;;;;6093111;29;20358;-78
2022/10/25 08:31:41;;;;;;;7.55;3.85;;;17.30;73.20;;;;;;6091922;29;20042;-77
2022/10/25 08:34:42;;;;;;;5.40;3.35;;;17.30;73.30;;;;;;6093540;29;20099;-77
2022/10/25 08:37:43;;;;;;;8.68;3.67;;;17.40;73.30;;;;;;6124266;29;20094;-78
2022/10/25 08:40:56;;;;;;;5.57;2.95;;;17.50;73.30;;;;;;6103389;29;20040;-78
2022/10/25 08:44:20;;;;;;;10.73;3.30;;;17.70;73.20;;;;;;6082842;29;20039;-79
2022/10/25 08:47:42;;;;;;;6.90;2.97;;;17.90;72.90;;;;;;6107357;29;20046;-78
2022/10/25 08:51:05;;;;;;;5.82;3.10;;;18.00;72.40;;;;;;6110687;29;20108;-78
2022/10/25 08:54:37;;;;;;;5.03;2.47;;;18.10;72.00;;;;;;6097482;29;20040;-78
2022/10/25 08:57:45;;;;;;;15.48;2.70;;;18.20;72.10;;;;;;6094338;29;20358;-78
2022/10/25 09:00:48;;;;;;;5.43;2.33;;;18.30;71.70;;;;;;6094552;29;20405;-79
2022/10/25 09:03:49;;;;;;;3.85;2.25;;;18.50;71.60;;;;;;6080938;29;20488;-79
2022/10/25 09:07:00;;;;;;;4.90;2.30;;;18.70;71.30;;;;;;6110956;29;20035;-79
2022/10/25 09:10:27;;;;;;;8.13;2.90;;;18.80;71.00;;;;;;6098090;29;20496;-79
2022/10/25 09:13:55;;;;;;;13.48;5.25;;;18.90;70.30;;;;;;6087838;29;20028;-79
2022/10/25 09:17:20;;;;;;;8.57;3.15;;;19.00;69.80;;;;;;6089995;29;20036;-79
2022/10/25 09:20:35;;;;;;;3.60;2.10;;;19.00;69.80;;;;;;6048021;29;20036;-78
2022/10/25 09:23:38;;;;;;;10.63;2.78;;;19.10;69.60;;;;;;6040503;29;20044;-79
2022/10/25 09:27:13;;;;;;;10.18;2.70;;;19.20;69.60;;;;;;6039566;29;20045;-78
2022/10/25 09:30:14;;;;;;;3.50;2.70;;;19.20;69.50;;;;;;6005905;29;20029;-80
2022/10/25 09:33:19;;;;;;;14.23;2.50;;;19.40;69.10;;;;;;6021281;29;20052;-77
2022/10/25 09:36:21;;;;;;;4.55;2.15;;;19.40;68.50;;;;;;6021383;29;20033;-78
2022/10/25 09:39:37;;;;;;;3.03;1.77;;;19.50;68.70;;;;;;6007353;29;20065;-78
2022/10/25 09:42:47;;;;;;;5.35;2.35;;;19.60;68.40;;;;;;6008683;29;20074;-78
2022/10/25 09:45:55;;;;;;;7.68;2.17;;;19.60;68.30;;;;;;6021364;29;20041;-78
2022/10/25 09:49:12;;;;;;;4.20;1.83;;;19.80;68.30;;;;;;6024887;29;20455;-79
2022/10/25 09:52:30;;;;;;;2.85;1.77;;;19.90;68.20;;;;;;6009225;29;20029;-78
2022/10/25 09:55:40;;;;;;;5.00;1.90;;;19.90;67.80;;;;;;6023357;29;20143;-77
2022/10/25 09:58:48;;;;;;;5.60;1.98;;;20.10;67.40;;;;;;6006021;29;20480;-78
2022/10/25 10:01:49;;;;;;;4.15;1.95;;;20.30;66.60;;;;;;6023977;29;20090;-77
2022/10/25 10:04:51;;;;;;;3.30;2.08;;;20.50;65.70;;;;;;6003589;29;20045;-78
2022/10/25 10:07:53;;;;;;;2.55;1.48;;;20.70;65.20;;;;;;6086567;29;20529;-79
2022/10/25 10:10:55;;;;;;;3.58;1.73;;;21.00;64.40;;;;;;6110508;29;20418;-79
2022/10/25 10:14:08;;;;;;;17.20;3.72;;;21.20;63.90;;;;;;6111088;29;20032;-78
2022/10/25 10:17:15;;;;;;;4.10;2.28;;;21.40;62.80;;;;;;6085618;29;20940;-79
2022/10/25 10:20:17;;;;;;;6.18;2.70;;;21.40;62.10;;;;;;6104596;29;20812;-78
2022/10/25 10:23:18;;;;;;;4.78;2.45;;;21.50;62.20;;;;;;6105212;29;20183;-80
2022/10/25 10:26:32;;;;;;;5.45;2.22;;;21.60;62.10;;;;;;6092603;29;20032;-79
2022/10/25 10:29:37;;;;;;;4.13;1.90;;;21.80;61.20;;;;;;6105149;29;20099;-79
2022/10/25 10:32:39;;;;;;;8.45;2.50;;;21.90;60.90;;;;;;6087738;29;20143;-79
2022/10/25 10:35:40;;;;;;;12.98;1.95;;;22.00;60.50;;;;;;6075387;29;20122;-79
2022/10/25 10:38:41;;;;;;;6.85;1.95;;;22.10;59.90;;;;;;6099830;29;20055;-79
2022/10/25 10:42:01;;;;;;;7.35;1.85;;;22.10;59.60;;;;;;6094821;29;20035;-79
2022/10/25 10:45:08;;;;;;;8.57;2.47;;;22.20;59.70;;;;;;6098955;29;20040;-79
2022/10/25 10:48:18;;;;;;;4.60;1.83;;;22.30;59.20;;;;;;6114912;29;20036;-78
2022/10/25 10:51:32;;;;;;;6.43;2.25;;;22.40;59.00;;;;;;6090254;29;20032;-80
2022/10/25 10:54:39;;;;;;;9.98;1.80;;;22.50;58.30;;;;;;6111507;29;20032;-79
2022/10/25 10:57:43;;;;;;;5.25;1.75;;;22.70;57.80;;;;;;6115387;29;20099;-79
2022/10/25 11:00:57;;;;;;;8.35;1.80;;;22.70;57.40;;;;;;6099391;29;20470;-78
2022/10/25 11:03:59;;;;;;;6.30;1.65;;;22.80;57.40;;;;;;6100180;29;20048;-79
2022/10/25 11:07:30;;;;;;;3.40;1.75;;;23.00;57.30;;;;;;6081774;29;20103;-79
2022/10/25 11:10:33;;;;;;;5.90;2.03;;;23.10;57.00;;;;;;6083831;29;20211;-78
2022/10/25 11:13:34;;;;;;;3.83;1.52;;;23.20;56.60;;;;;;6101111;29;20036;-80
2022/10/25 11:17:02;;;;;;;4.22;1.88;;;23.30;56.10;;;;;;6097495;29;20087;-78
2022/10/25 11:20:24;;;;;;;5.20;2.00;;;23.50;55.60;;;;;;6097549;29;20067;-79
2022/10/25 11:23:36;;;;;;;8.13;2.10;;;23.90;55.00;;;;;;6099454;29;20098;-80
2022/10/25 11:27:06;;;;;;;9.95;2.00;;;24.50;54.00;;;;;;6096464;29;20095;-79
2022/10/25 11:30:18;;;;;;;4.40;1.55;;;25.20;52.80;;;;;;6074916;29;20032;-78
2022/10/25 11:33:30;;;;;;;6.60;1.50;;;25.90;51.10;;;;;;6097927;29;20477;-78
2022/10/25 11:37:09;;;;;;;2.55;1.40;;;26.40;49.80;;;;;;6102168;29;20031;-78
2022/10/25 11:40:28;;;;;;;4.22;1.30;;;26.60;48.90;;;;;;6043688;29;20036;-78
2022/10/25 11:44:23;;;;;;;2.83;1.33;;;26.50;48.30;;;;;;6050088;29;20554;-79
2022/10/25 11:47:31;;;;;;;2.28;1.48;;;26.30;48.30;;;;;;5958329;29;20727;-79
2022/10/25 11:50:32;;;;;;;5.57;1.85;;;26.20;48.60;;;;;;5968809;29;20065;-79
2022/10/25 11:53:36;;;;;;;4.13;1.70;;;26.30;48.30;;;;;;5950108;29;20047;-78
2022/10/25 11:56:45;;;;;;;3.60;1.40;;;26.20;48.20;;;;;;5968367;29;20046;-78
2022/10/25 11:59:48;;;;;;;4.90;1.33;;;26.10;48.00;;;;;;5962590;29;20060;-78
2022/10/25 12:03:33;;;;;;;3.28;1.35;;;26.00;47.70;;;;;;5953693;29;20058;-77
2022/10/25 12:06:50;;;;;;;2.65;1.20;;;25.70;48.40;;;;;;5952489;29;20039;-78
2022/10/25 12:10:26;;;;;;;4.07;1.67;;;25.50;48.50;;;;;;5950678;29;20450;-77
2022/10/25 12:13:35;;;;;;;3.90;1.50;;;25.30;49.00;;;;;;5951173;29;20437;-78
2022/10/25 12:16:37;;;;;;;2.42;1.17;;;25.10;49.30;;;;;;5978263;29;20472;-78
2022/10/25 12:19:45;;;;;;;7.45;1.70;;;25.00;49.40;;;;;;5986285;29;20429;-79
2022/10/25 12:22:49;;;;;;;3.22;1.38;;;24.80;49.40;;;;;;6099661;29;20415;-77
2022/10/25 12:26:05;;;;;;;4.15;1.40;;;24.60;49.40;;;;;;6088474;29;20446;-79
2022/10/25 12:29:15;;;;;;;2.55;1.00;;;24.50;50.00;;;;;;6083718;29;20051;-79
2022/10/25 12:32:36;;;;;;;2.75;1.25;;;24.30;50.20;;;;;;6090352;29;20075;-79
2022/10/25 12:35:46;;;;;;;7.28;1.63;;;24.30;50.30;;;;;;6097624;29;20331;-78
2022/10/25 12:38:48;;;;;;;2.75;1.13;;;24.30;50.20;;;;;;6113779;29;20044;-80
2022/10/25 12:41:55;;;;;;;5.28;1.20;;;24.30;50.50;;;;;;6099587;29;20180;-78
2022/10/25 12:45:33;;;;;;;3.67;1.47;;;24.20;50.60;;;;;;6069930;29;20477;-77
2022/10/25 12:49:03;;;;;;;2.35;1.30;;;24.30;50.40;;;;;;6105489;29;20039;-78
2022/10/25 12:52:10;;;;;;;2.65;1.30;;;24.30;50.50;;;;;;6103198;29;20434;-78
2022/10/25 12:55:31;;;;;;;6.25;1.52;;;24.30;50.40;;;;;;6068893;29;20055;-78
2022/10/25 12:58:42;;;;;;;3.30;1.40;;;24.40;50.60;;;;;;6065925;29;20032;-78
2022/10/25 13:02:21;;;;;;;3.10;1.25;;;24.50;50.50;;;;;;6091910;29;20417;-78
2022/10/25 13:05:33;;;;;;;2.97;1.67;;;24.60;50.50;;;;;;5948424;29;20342;-78
2022/10/25 13:08:37;;;;;;;2.45;1.50;;;24.60;50.60;;;;;;5996060;29;20434;-78
2022/10/25 13:11:43;;;;;;;4.50;1.25;;;24.60;50.60;;;;;;5995720;29;20038;-78
2022/10/25 13:14:53;;;;;;;7.38;1.35;;;24.60;50.60;;;;;;5967367;29;20190;-78
2022/10/25 13:18:03;;;;;;;3.10;1.20;;;24.60;50.80;;;;;;5975598;29;20453;-78
2022/10/25 13:21:43;;;;;;;2.13;1.13;;;24.50;51.00;;;;;;5985890;29;20477;-78
2022/10/25 13:24:44;;;;;;;3.05;1.50;;;24.50;51.20;;;;;;5903481;30;20338;-78
2022/10/25 13:28:19;;;;;;;2.58;1.00;;;24.40;51.20;;;;;;5926300;30;20040;-78
2022/10/25 13:31:34;;;;;;;3.15;1.20;;;24.20;51.50;;;;;;5839056;30;20498;-80
2022/10/25 13:34:35;;;;;;;4.50;1.45;;;24.10;51.80;;;;;;5846168;30;20170;-79
2022/10/25 13:37:41;;;;;;;5.55;1.42;;;24.00;52.00;;;;;;5833958;30;20045;-79
2022/10/25 13:40:42;;;;;;;7.57;1.92;;;24.00;52.00;;;;;;5844059;30;20353;-78
2022/10/25 13:44:03;;;;;;;3.00;1.20;;;23.90;52.00;;;;;;5875562;30;20044;-78
2022/10/25 13:47:25;;;;;;;4.00;1.67;;;23.80;52.20;;;;;;5871279;30;20059;-77
2022/10/25 13:50:35;;;;;;;8.40;1.30;;;23.80;52.00;;;;;;5865127;30;20052;-78
2022/10/25 13:53:40;;;;;;;4.03;1.58;;;23.80;52.00;;;;;;5889382;30;20109;-78
2022/10/25 13:56:52;;;;;;;4.88;1.40;;;23.70;51.90;;;;;;5875562;30;20040;-78
2022/10/25 14:00:00;;;;;;;4.88;1.52;;;23.70;52.10;;;;;;5897921;29;20056;-78
2022/10/25 14:03:13;;;;;;;6.95;1.30;;;23.60;52.10;;;;;;5999295;29;20073;-78
2022/10/25 14:06:35;;;;;;;7.05;1.75;;;23.60;52.10;;;;;;6038068;29;20032;-79
2022/10/25 14:09:38;;;;;;;4.43;1.10;;;23.60;52.20;;;;;;6104602;29;20036;-76
2022/10/25 14:12:44;;;;;;;3.15;1.30;;;23.70;52.20;;;;;;6100015;29;20047;-78
2022/10/25 14:15:51;;;;;;;4.13;2.20;;;23.60;52.20;;;;;;6107306;29;20069;-78
2022/10/25 14:18:56;;;;;;;2.72;1.20;;;23.60;52.20;;;;;;6107458;29;20461;-77
2022/10/25 14:21:58;;;;;;;11.27;1.17;;;23.60;52.30;;;;;;6104776;29;20088;-77
2022/10/25 14:25:03;;;;;;;4.18;1.33;;;23.60;52.30;;;;;;6092609;29;20028;-78
2022/10/25 14:28:15;;;;;;;4.15;1.10;;;23.50;52.20;;;;;;6102305;29;20032;-78
2022/10/25 14:31:20;;;;;;;2.08;1.20;;;23.50;52.30;;;;;;6117615;29;20039;-78
2022/10/25 14:34:23;;;;;;;6.55;1.10;;;23.40;52.40;;;;;;6103671;29;20070;-77
2022/10/25 14:37:24;;;;;;;4.30;1.83;;;23.40;52.50;;;;;;6117524;29;20111;-78
2022/10/25 14:40:30;;;;;;;2.15;1.17;;;23.30;52.50;;;;;;6094884;29;20055;-79
2022/10/25 14:43:33;;;;;;;2.60;1.30;;;23.20;52.50;;;;;;6090814;29;20068;-81
2022/10/25 14:46:42;;;;;;;4.35;1.70;;;23.20;52.70;;;;;;6114163;29;20044;-78
2022/10/25 14:49:43;;;;;;;9.57;1.70;;;23.20;52.80;;;;;;6108749;29;20044;-77
2022/10/25 14:52:46;;;;;;;4.78;1.30;;;23.20;52.70;;;;;;6103683;29;20050;-78
2022/10/25 14:55:54;;;;;;;4.38;1.20;;;23.30;52.70;;;;;;6103001;29;20118;-78
2022/10/25 14:58:55;;;;;;;3.78;1.52;;;23.30;52.80;;;;;;6095943;29;20036;-78
2022/10/25 15:02:03;;;;;;;3.28;1.30;;;23.30;52.70;;;;;;6107799;29;20036;-78
2022/10/25 15:05:05;;;;;;;6.32;1.40;;;23.30;52.50;;;;;;6090517;29;20039;-78
2022/10/25 15:08:17;;;;;;;2.60;1.23;;;23.30;52.40;;;;;;6113888;29;20115;-78
2022/10/25 15:11:19;;;;;;;8.77;1.33;;;23.20;52.70;;;;;;6106471;29;20107;-80
2022/10/25 15:14:20;;;;;;;8.77;1.40;;;23.20;53.00;;;;;;6104447;29;20024;-77
2022/10/25 15:17:21;;;;;;;12.15;1.30;;;23.10;53.10;;;;;;6093501;29;20044;-77
2022/10/25 15:20:29;;;;;;;5.18;1.83;;;23.10;53.20;;;;;;6095622;29;20068;-77
2022/10/25 15:23:30;;;;;;;6.77;1.70;;;23.10;53.40;;;;;;6116777;29;20028;-79
2022/10/25 15:26:31;;;;;;;2.72;1.42;;;23.10;53.60;;;;;;6105101;29;20052;-77
2022/10/25 15:29:41;;;;;;;3.33;1.17;;;23.10;53.70;;;;;;6105673;29;20036;-77
2022/10/25 15:32:42;;;;;;;7.05;1.52;;;23.10;53.70;;;;;;6103678;29;20389;-77
2022/10/25 15:35:55;;;;;;;9.38;1.90;;;23.10;53.80;;;;;;6101406;29;20040;-78
2022/10/25 15:39:26;;;;;;;9.70;1.70;;;23.10;54.50;;;;;;6098839;29;20083;-78
2022/10/25 15:42:27;;;;;;;13.38;1.70;;;23.00;54.20;;;;;;6094282;29;20100;-78
2022/10/25 15:45:28;;;;;;;5.75;1.20;;;23.00;54.20;;;;;;6083675;29;20387;-77
2022/10/25 15:48:29;;;;;;;4.50;1.65;;;23.00;54.10;;;;;;6095316;29;20058;-77
2022/10/25 15:51:33;;;;;;;6.38;1.10;;;23.00;54.70;;;;;;6107455;29;20040;-78
2022/10/25 15:54:35;;;;;;;3.22;1.38;;;22.90;54.00;;;;;;6111389;29;20031;-78
2022/10/25 15:57:36;;;;;;;7.97;1.35;;;22.80;54.10;;;;;;6082371;29;20027;-77
2022/10/25 16:00:38;;;;;;;4.68;1.13;;;22.70;54.20;;;;;;6101227;29;20071;-77
2022/10/25 16:03:39;;;;;;;2.45;1.40;;;22.70;54.30;;;;;;6098609;29;20075;-77
2022/10/25 16:06:40;;;;;;;5.22;1.35;;;22.60;54.30;;;;;;6091110;29;20048;-77
2022/10/25 16:09:42;;;;;;;4.10;1.48;;;22.60;54.30;;;;;;6099948;29;20047;-77